Highmount, Pennsylvania
Current Conditions -  °F | °C
As of 12:56 AM on Saturday 20 Dec 2014 (Local Time) from KMDT Reporting Station
Overcast Overcast  
Wind Chill: 24°   Ceiling: 4200
Heat Index: 30°   Visibility: 10mi
Dew Point: 21°   Wind: 6mph
Humidity: 69%   Direction: 300°WNW
Pressure: 30.21"   Gusts: NA
Location:  40.0152°N, 76.5974°W
Report Text: KMDT 200556Z 30005KT 10SM OVC042 M01/M06 A3021 RMK AO2 SLP233 BINOVC T10111061 10006 21022 58003
Loading
Personal Weather Stations






























Interactive Weather Map New forecast layout! Learn more

10-Day Weather Forecast

Advertisements
Track Severe Weather on mobile